Time;durP1;ratioP1;P1;durP2;ratioP2;P2;SDS_P1;SDS_P2;PMS_P1;PMS_P2;Temp;Humidity;BMP_temperature;BMP_pressure;BME280_temperature;BME280_humidity;BME280_pressure;Samples;Min_cycle;Max_cycle;Signal;HPM_P1;HPM_P2
2022/07/05 00:00:42;;;;;;;18.97;10.37;;;16.00;99.90;;;;;;4981374;28;20229;-59
2022/07/05 00:03:08;;;;;;;20.67;11.40;;;16.00;99.90;;;;;;4979897;28;20690;-59
2022/07/05 00:05:34;;;;;;;30.07;10.73;;;16.00;99.90;;;;;;4987129;28;20424;-59
2022/07/05 00:08:00;;;;;;;47.50;10.77;;;16.00;99.90;;;;;;4986876;28;20200;-60
2022/07/05 00:10:25;;;;;;;18.10;9.37;;;16.00;99.90;;;;;;4985742;28;20956;-59
2022/07/05 00:12:51;;;;;;;12.30;8.70;;;16.00;99.90;;;;;;4989901;28;20212;-59
2022/07/05 00:15:17;;;;;;;29.73;9.67;;;16.00;99.90;;;;;;4986235;28;20177;-59
2022/07/05 00:17:43;;;;;;;25.47;9.80;;;16.00;99.90;;;;;;4982876;28;20705;-60
2022/07/05 00:20:09;;;;;;;21.03;10.37;;;16.00;99.90;;;;;;4989317;28;20193;-59
2022/07/05 00:22:34;;;;;;;20.70;10.70;;;15.90;99.90;;;;;;4983808;28;20201;-59
2022/07/05 00:25:00;;;;;;;17.17;10.13;;;16.00;99.90;;;;;;4984551;28;20517;-60
2022/07/05 00:27:26;;;;;;;21.60;10.10;;;16.00;99.90;;;;;;4985628;28;20708;-59
2022/07/05 00:29:51;;;;;;;15.93;8.40;;;16.00;99.90;;;;;;4989027;28;20606;-60
2022/07/05 00:32:17;;;;;;;15.80;8.30;;;16.10;99.90;;;;;;4985247;28;20199;-59
2022/07/05 00:34:43;;;;;;;11.33;8.30;;;16.10;99.90;;;;;;4984949;28;20316;-59
2022/07/05 00:37:08;;;;;;;15.90;9.27;;;16.00;99.90;;;;;;4987186;28;20708;-59
2022/07/05 00:39:34;;;;;;;15.90;8.10;;;16.10;99.90;;;;;;4983572;28;20639;-59
2022/07/05 00:42:01;;;;;;;8.00;5.33;;;16.10;99.90;;;;;;4985747;28;20181;-60
2022/07/05 00:44:36;;;;;;;6.03;5.00;;;16.10;99.90;;;;;;4982675;28;20188;-59
2022/07/05 00:47:03;;;;;;;16.63;8.53;;;16.00;99.90;;;;;;4987467;28;20420;-59
2022/07/05 00:49:30;;;;;;;11.23;7.80;;;16.10;99.90;;;;;;4988345;28;21129;-60
2022/07/05 00:51:55;;;;;;;13.17;8.60;;;16.00;99.90;;;;;;4987322;28;20464;-59
2022/07/05 00:54:21;;;;;;;21.60;8.87;;;16.00;99.90;;;;;;4980893;28;20479;-59
2022/07/05 00:56:47;;;;;;;15.23;8.90;;;16.00;99.90;;;;;;4984857;28;20177;-59
2022/07/05 00:59:13;;;;;;;16.03;8.10;;;16.00;99.90;;;;;;4982963;28;20177;-59
2022/07/05 01:01:39;;;;;;;22.27;7.90;;;16.00;99.90;;;;;;4987373;28;20491;-59
2022/07/05 01:04:04;;;;;;;20.53;7.40;;;15.90;99.90;;;;;;4985628;28;20219;-59
2022/07/05 01:06:30;;;;;;;22.83;8.10;;;15.90;99.90;;;;;;4983147;28;20173;-59
2022/07/05 01:08:56;;;;;;;14.40;8.77;;;15.80;99.90;;;;;;4987356;28;20515;-59
2022/07/05 01:11:22;;;;;;;51.77;9.70;;;15.70;99.90;;;;;;4989559;28;20173;-59
2022/07/05 01:13:48;;;;;;;28.70;8.60;;;15.70;99.90;;;;;;4989015;28;20193;-59
2022/07/05 01:16:14;;;;;;;65.10;9.53;;;15.60;99.90;;;;;;4978764;28;20442;-59
2022/07/05 01:18:40;;;;;;;16.80;9.73;;;15.60;99.90;;;;;;4986313;28;20181;-59
2022/07/05 01:21:06;;;;;;;17.33;9.03;;;15.60;99.90;;;;;;4986321;28;20467;-59
2022/07/05 01:23:33;;;;;;;58.03;11.17;;;15.60;99.90;;;;;;4985041;28;20193;-59
2022/07/05 01:26:01;;;;;;;29.53;11.07;;;15.60;99.90;;;;;;4982761;28;20838;-59
2022/07/05 01:28:26;;;;;;;33.13;9.50;;;15.50;99.90;;;;;;4986672;28;20467;-59
2022/07/05 01:30:52;;;;;;;19.93;9.70;;;15.50;99.90;;;;;;4988201;28;20448;-59
2022/07/05 01:33:18;;;;;;;27.77;10.47;;;15.50;99.90;;;;;;4982968;28;20205;-59
2022/07/05 01:35:44;;;;;;;27.20;10.30;;;15.50;99.90;;;;;;4985151;28;20189;-59
2022/07/05 01:38:11;;;;;;;18.83;9.30;;;15.50;99.90;;;;;;4987466;28;20188;-59
2022/07/05 01:40:37;;;;;;;34.63;11.20;;;15.50;99.90;;;;;;4977781;28;20524;-60
2022/07/05 01:43:04;;;;;;;51.13;9.80;;;15.50;99.90;;;;;;4976035;28;20452;-59
2022/07/05 01:45:42;;;;;;;19.87;8.80;;;15.60;99.90;;;;;;4981068;28;20173;-59
2022/07/05 01:48:10;;;;;;;58.40;9.20;;;15.50;99.90;;;;;;4974339;28;20440;-59
2022/07/05 01:50:45;;;;;;;23.63;8.80;;;15.50;99.90;;;;;;4980951;28;20471;-59
2022/07/05 01:53:17;;;;;;;30.23;9.33;;;15.40;99.90;;;;;;4989747;28;20432;-59
2022/07/05 01:55:42;;;;;;;63.20;10.10;;;15.40;99.90;;;;;;4980665;28;20529;-59
2022/07/05 01:58:08;;;;;;;34.37;9.20;;;15.30;99.90;;;;;;4984591;28;20930;-59
2022/07/05 02:00:47;;;;;;;23.13;8.80;;;15.30;99.90;;;;;;4984902;28;20254;-59
2022/07/05 02:03:13;;;;;;;25.60;8.73;;;15.30;99.90;;;;;;4979296;28;21400;-59
2022/07/05 02:05:40;;;;;;;28.80;10.30;;;15.30;99.90;;;;;;4981723;28;20507;-59
2022/07/05 02:08:06;;;;;;;31.33;10.97;;;15.30;99.90;;;;;;4984196;28;20432;-58
2022/07/05 02:10:32;;;;;;;15.53;9.43;;;15.30;99.90;;;;;;4987554;28;20458;-59
2022/07/05 02:12:57;;;;;;;20.60;9.70;;;15.30;99.90;;;;;;4991331;28;20220;-59
2022/07/05 02:15:23;;;;;;;37.63;9.40;;;15.20;99.90;;;;;;4985154;28;20185;-59
2022/07/05 02:17:48;;;;;;;28.60;9.00;;;15.20;99.90;;;;;;4974577;28;20181;-59
2022/07/05 02:20:14;;;;;;;17.53;11.10;;;15.20;99.90;;;;;;4986068;28;20197;-59
2022/07/05 02:22:40;;;;;;;29.17;10.53;;;15.20;99.90;;;;;;4986432;28;20208;-59
2022/07/05 02:25:06;;;;;;;40.70;12.17;;;15.20;99.90;;;;;;4981359;28;20180;-60
2022/07/05 02:27:31;;;;;;;29.80;12.00;;;15.30;99.90;;;;;;4970204;28;20177;-59
2022/07/05 02:29:57;;;;;;;27.23;12.87;;;15.30;99.90;;;;;;4986242;28;20470;-60
2022/07/05 02:32:23;;;;;;;25.87;12.67;;;15.30;99.90;;;;;;4983954;28;20736;-59
2022/07/05 02:34:49;;;;;;;34.60;12.83;;;15.30;99.90;;;;;;4987104;28;20189;-59
2022/07/05 02:37:15;;;;;;;40.53;13.97;;;15.30;99.90;;;;;;4989085;28;20424;-59
2022/07/05 02:39:40;;;;;;;32.87;13.60;;;15.30;99.90;;;;;;4987630;28;20192;-59
2022/07/05 02:42:06;;;;;;;28.70;14.33;;;15.30;99.90;;;;;;4974267;28;20185;-58
2022/07/05 02:44:31;;;;;;;28.90;13.47;;;15.30;99.90;;;;;;4987074;28;20197;-59
2022/07/05 02:46:57;;;;;;;26.80;13.80;;;15.30;99.90;;;;;;4977129;28;20189;-60
2022/07/05 02:49:23;;;;;;;26.03;13.17;;;15.30;99.90;;;;;;4985547;28;20178;-59
2022/07/05 02:51:48;;;;;;;34.10;12.27;;;15.30;99.90;;;;;;4988502;28;20189;-59
2022/07/05 02:54:14;;;;;;;36.13;13.47;;;15.30;99.90;;;;;;4984374;28;20276;-59
2022/07/05 02:56:40;;;;;;;26.47;12.23;;;15.30;99.90;;;;;;4978685;28;20213;-59
2022/07/05 02:59:05;;;;;;;24.27;12.40;;;15.30;99.90;;;;;;4986597;28;20235;-60
2022/07/05 03:01:31;;;;;;;23.33;12.80;;;15.30;99.90;;;;;;4989863;28;20455;-59
2022/07/05 03:03:58;;;;;;;31.60;13.33;;;15.30;99.90;;;;;;4986475;28;20212;-58
2022/07/05 03:06:24;;;;;;;72.27;13.83;;;15.30;99.90;;;;;;4981819;28;20658;-60
2022/07/05 03:08:50;;;;;;;22.40;11.77;;;15.30;99.90;;;;;;4989448;28;20515;-60
2022/07/05 03:11:15;;;;;;;18.27;11.27;;;15.30;99.90;;;;;;4992799;28;20759;-58
2022/07/05 03:13:42;;;;;;;39.60;11.90;;;15.30;99.90;;;;;;4987070;28;20225;-59
2022/07/05 03:16:07;;;;;;;25.10;10.83;;;15.30;99.90;;;;;;4980627;28;20216;-59
2022/07/05 03:18:33;;;;;;;44.47;12.47;;;15.20;99.90;;;;;;4990815;28;20432;-61
2022/07/05 03:20:59;;;;;;;23.53;11.80;;;15.20;99.90;;;;;;4988863;28;20528;-59
2022/07/05 03:23:24;;;;;;;21.37;11.73;;;15.10;99.90;;;;;;4988066;28;20263;-60
2022/07/05 03:25:50;;;;;;;22.83;11.23;;;15.10;99.90;;;;;;4973927;28;20269;-59
2022/07/05 03:28:15;;;;;;;22.30;11.50;;;15.10;99.90;;;;;;4976494;28;20169;-59
2022/07/05 03:30:41;;;;;;;29.53;11.50;;;15.10;99.90;;;;;;4990996;28;20177;-60
2022/07/05 03:33:07;;;;;;;20.87;10.93;;;15.10;99.90;;;;;;4985666;28;20300;-60
2022/07/05 03:35:33;;;;;;;24.30;12.20;;;15.10;99.90;;;;;;4986775;28;20647;-60
2022/07/05 03:37:58;;;;;;;19.10;11.40;;;15.10;99.90;;;;;;4989756;28;20443;-58
2022/07/05 03:40:24;;;;;;;19.50;7.83;;;15.10;99.90;;;;;;4987406;28;20198;-58
2022/07/05 03:42:50;;;;;;;14.83;7.50;;;15.10;99.90;;;;;;4984470;28;20200;-59
2022/07/05 03:45:15;;;;;;;19.60;9.50;;;15.10;99.90;;;;;;4991312;28;20548;-59
2022/07/05 03:47:41;;;;;;;20.60;7.63;;;15.00;99.90;;;;;;4989802;28;20173;-60
2022/07/05 03:50:07;;;;;;;21.63;9.13;;;15.00;99.90;;;;;;4991542;28;20181;-59
2022/07/05 03:52:32;;;;;;;22.47;8.00;;;15.00;99.90;;;;;;4978195;28;20205;-53
2022/07/05 03:54:58;;;;;;;20.60;8.47;;;14.90;99.90;;;;;;4979442;28;20177;-56
2022/07/05 03:57:23;;;;;;;19.43;8.37;;;14.90;99.90;;;;;;4980847;28;20243;-54
2022/07/05 03:59:49;;;;;;;17.03;8.30;;;14.90;99.90;;;;;;4983592;28;20236;-52
2022/07/05 04:02:15;;;;;;;31.60;10.37;;;14.90;99.90;;;;;;4978516;28;20186;-53
2022/07/05 04:04:40;;;;;;;18.63;9.93;;;14.90;99.90;;;;;;4974538;28;20177;-52
2022/07/05 04:07:06;;;;;;;15.10;9.70;;;14.90;99.90;;;;;;4979794;28;21238;-54
2022/07/05 04:09:33;;;;;;;22.27;10.43;;;15.00;99.90;;;;;;4981861;28;20177;-54
2022/07/05 04:11:58;;;;;;;23.17;10.83;;;15.00;99.90;;;;;;4979770;28;20193;-57
2022/07/05 04:14:24;;;;;;;34.07;11.07;;;15.00;99.90;;;;;;4978453;28;20452;-59
2022/07/05 04:16:50;;;;;;;21.00;10.70;;;15.00;99.90;;;;;;4975214;28;20204;-60
2022/07/05 04:19:16;;;;;;;18.83;10.07;;;15.00;99.90;;;;;;4983061;28;20189;-60
2022/07/05 04:21:41;;;;;;;26.87;13.07;;;15.00;99.90;;;;;;4980424;28;20233;-61
2022/07/05 04:24:07;;;;;;;21.93;11.13;;;15.00;99.90;;;;;;4974541;28;20479;-60
2022/07/05 04:26:33;;;;;;;21.73;10.67;;;15.00;99.90;;;;;;4981384;28;20193;-60
2022/07/05 04:28:59;;;;;;;12.10;8.33;;;15.00;99.90;;;;;;4981966;28;20424;-60
2022/07/05 04:31:24;;;;;;;15.53;10.27;;;15.00;99.90;;;;;;4971509;28;20927;-60
2022/07/05 04:33:50;;;;;;;20.60;8.90;;;15.10;99.90;;;;;;4984290;28;20201;-59
2022/07/05 04:36:16;;;;;;;15.40;9.43;;;15.10;99.90;;;;;;4979376;28;20208;-60
2022/07/05 04:38:41;;;;;;;19.37;10.10;;;15.00;99.90;;;;;;4984760;28;20182;-60
2022/07/05 04:41:07;;;;;;;53.87;9.50;;;15.00;99.90;;;;;;4974652;28;20206;-59
2022/07/05 04:43:34;;;;;;;37.37;11.50;;;15.00;99.90;;;;;;4971297;28;20233;-58
2022/07/05 04:45:59;;;;;;;15.67;9.37;;;15.00;99.90;;;;;;4982860;28;20176;-60
2022/07/05 04:48:25;;;;;;;13.43;8.20;;;14.90;99.90;;;;;;4981020;28;20437;-59
2022/07/05 04:50:51;;;;;;;16.03;9.17;;;14.80;99.90;;;;;;4981059;28;20184;-60
2022/07/05 04:53:17;;;;;;;18.63;9.13;;;14.80;99.90;;;;;;4987798;28;20207;-60
2022/07/05 04:55:42;;;;;;;14.93;9.30;;;14.80;99.90;;;;;;4984856;28;20260;-61
2022/07/05 04:58:08;;;;;;;21.13;9.80;;;14.80;99.90;;;;;;4986208;28;20189;-60
2022/07/05 05:00:34;;;;;;;18.97;10.43;;;14.80;99.90;;;;;;4972654;28;20657;-59
2022/07/05 05:03:00;;;;;;;17.73;10.43;;;14.80;99.90;;;;;;4982417;28;20564;-60
2022/07/05 05:05:25;;;;;;;18.30;10.03;;;14.80;99.90;;;;;;4987709;28;20184;-60
2022/07/05 05:07:51;;;;;;;17.30;9.93;;;14.80;99.90;;;;;;4990225;28;20650;-60
2022/07/05 05:10:17;;;;;;;18.23;9.93;;;14.90;99.90;;;;;;4984462;28;20188;-60
2022/07/05 05:12:42;;;;;;;10.27;7.90;;;14.90;99.90;;;;;;4984410;28;20204;-59
2022/07/05 05:15:09;;;;;;;11.90;7.83;;;14.90;99.90;;;;;;4977020;28;20240;-60
2022/07/05 05:17:44;;;;;;;18.07;9.77;;;14.90;99.90;;;;;;4988277;28;20176;-61
2022/07/05 05:20:15;;;;;;;18.57;10.23;;;15.00;99.90;;;;;;4970910;28;20452;-60
2022/07/05 05:22:41;;;;;;;22.47;9.83;;;15.00;99.90;;;;;;4981732;28;20462;-60
2022/07/05 05:25:08;;;;;;;18.17;9.30;;;15.00;99.90;;;;;;4989779;28;20753;-59
2022/07/05 05:27:33;;;;;;;20.03;9.53;;;15.10;99.90;;;;;;4980900;28;20999;-60
2022/07/05 05:29:59;;;;;;;16.83;9.70;;;15.10;99.90;;;;;;4987630;28;20432;-60
2022/07/05 05:32:25;;;;;;;15.90;10.00;;;15.20;99.90;;;;;;4977431;28;20189;-59
2022/07/05 05:34:51;;;;;;;15.33;10.03;;;15.30;99.90;;;;;;4985859;28;20531;-60
2022/07/05 05:37:16;;;;;;;13.23;9.50;;;15.40;99.90;;;;;;4984967;28;20674;-60
2022/07/05 05:39:42;;;;;;;13.40;9.00;;;15.40;99.90;;;;;;4980573;28;20176;-60
2022/07/05 05:42:08;;;;;;;15.03;8.93;;;15.40;99.90;;;;;;4970687;28;20174;-60
2022/07/05 05:44:33;;;;;;;14.03;8.13;;;15.50;99.90;;;;;;4985407;28;20658;-59
2022/07/05 05:46:59;;;;;;;9.03;6.20;;;15.50;99.90;;;;;;4986388;28;20426;-60
2022/07/05 05:49:25;;;;;;;12.30;9.17;;;15.60;99.90;;;;;;4984537;28;20174;-60
2022/07/05 05:51:50;;;;;;;17.60;10.30;;;15.60;99.90;;;;;;4986138;28;20184;-60
2022/07/05 05:54:16;;;;;;;22.10;9.23;;;15.70;99.90;;;;;;4988619;28;20208;-60
2022/07/05 05:56:41;;;;;;;10.60;7.60;;;15.80;99.90;;;;;;4978212;28;20264;-59
2022/07/05 05:59:08;;;;;;;6.60;4.90;;;15.90;99.90;;;;;;4986424;28;20293;-60
2022/07/05 06:01:34;;;;;;;5.73;5.23;;;16.00;99.90;;;;;;4986985;28;20298;-60
2022/07/05 06:03:59;;;;;;;7.83;5.93;;;16.10;99.90;;;;;;4979339;28;20965;-60
2022/07/05 06:06:25;;;;;;;18.70;9.37;;;16.20;99.90;;;;;;4986503;28;20189;-61
2022/07/05 06:08:50;;;;;;;14.23;7.73;;;16.20;99.90;;;;;;4987874;28;20177;-60
2022/07/05 06:11:16;;;;;;;11.77;8.60;;;16.30;99.90;;;;;;4984015;28;20553;-61
2022/07/05 06:13:42;;;;;;;17.10;8.20;;;16.40;99.90;;;;;;4984386;28;20635;-60
2022/07/05 06:16:08;;;;;;;17.57;7.60;;;16.50;99.90;;;;;;4987282;28;20185;-60
2022/07/05 06:18:34;;;;;;;11.37;7.47;;;16.50;99.90;;;;;;4988604;28;20177;-60
2022/07/05 06:20:59;;;;;;;13.27;8.60;;;16.60;99.90;;;;;;4977896;28;20471;-60
2022/07/05 06:23:25;;;;;;;38.27;18.87;;;16.60;99.90;;;;;;4982254;28;20232;-61
2022/07/05 06:25:51;;;;;;;16.03;8.27;;;16.70;99.90;;;;;;4989045;28;20611;-60
2022/07/05 06:28:16;;;;;;;13.70;8.13;;;16.80;99.90;;;;;;4986821;28;20181;-61
2022/07/05 06:30:42;;;;;;;14.20;8.07;;;16.90;99.90;;;;;;4991123;28;20256;-60
2022/07/05 06:33:08;;;;;;;13.07;7.60;;;17.00;99.90;;;;;;4991307;28;21188;-61
2022/07/05 06:35:34;;;;;;;14.80;7.83;;;17.10;99.90;;;;;;4991544;28;20830;-60
2022/07/05 06:38:01;;;;;;;13.63;7.23;;;17.10;99.90;;;;;;4987643;28;20174;-60
2022/07/05 06:40:29;;;;;;;17.60;7.80;;;17.20;99.90;;;;;;4990086;28;20614;-60
2022/07/05 06:43:00;;;;;;;13.60;7.60;;;17.20;99.90;;;;;;4988690;28;20543;-61
2022/07/05 06:45:26;;;;;;;12.03;7.50;;;17.30;99.90;;;;;;4987112;28;21398;-61
2022/07/05 06:47:59;;;;;;;14.40;7.33;;;17.40;99.90;;;;;;4985265;28;20451;-60
2022/07/05 06:50:29;;;;;;;8.80;6.67;;;17.50;99.90;;;;;;4985372;28;20189;-61
2022/07/05 06:52:55;;;;;;;10.10;6.90;;;17.60;99.90;;;;;;4990131;28;20456;-60
2022/07/05 06:55:22;;;;;;;16.47;8.10;;;17.60;99.90;;;;;;4987186;28;20440;-60
2022/07/05 06:57:48;;;;;;;10.90;7.20;;;17.80;99.90;;;;;;4990114;28;20818;-60
2022/07/05 07:00:14;;;;;;;10.10;7.07;;;17.90;99.90;;;;;;4991464;28;20540;-61
2022/07/05 07:02:40;;;;;;;11.43;7.77;;;18.00;99.90;;;;;;4989194;28;20237;-60
2022/07/05 07:05:07;;;;;;;10.10;6.60;;;18.10;99.90;;;;;;4984917;28;20429;-61
2022/07/05 07:10:17;;;;;;;10.97;6.50;;;18.30;99.90;;;;;;4996546;28;20446;-61
2022/07/05 07:12:43;;;;;;;10.77;6.50;;;18.30;99.90;;;;;;4988053;28;20455;-60
2022/07/05 07:15:09;;;;;;;8.33;6.27;;;18.40;99.90;;;;;;4983602;28;20228;-60
2022/07/05 07:17:35;;;;;;;22.40;6.00;;;18.50;99.90;;;;;;4984130;28;20179;-60
2022/07/05 07:20:00;;;;;;;12.30;6.00;;;18.60;99.90;;;;;;4986256;28;20440;-60
2022/07/05 07:22:26;;;;;;;8.53;6.07;;;18.80;99.90;;;;;;4991324;28;20518;-60
2022/07/05 07:24:52;;;;;;;6.33;4.10;;;18.90;99.90;;;;;;4990530;28;20925;-59
2022/07/05 07:27:18;;;;;;;7.23;4.30;;;19.00;99.90;;;;;;4979654;28;20243;-60
2022/07/05 07:29:43;;;;;;;7.90;3.40;;;19.10;99.90;;;;;;4982433;28;20451;-60
2022/07/05 07:32:09;;;;;;;5.43;2.87;;;19.30;99.90;;;;;;4989816;28;20193;-60
2022/07/05 07:34:39;;;;;;;4.97;2.47;;;19.50;99.90;;;;;;4986385;28;20687;-60
2022/07/05 07:37:06;;;;;;;3.00;2.70;;;19.60;99.90;;;;;;4985135;28;20182;-61
2022/07/05 07:39:32;;;;;;;4.63;2.20;;;19.80;99.90;;;;;;4989997;28;20428;-60
2022/07/05 07:41:58;;;;;;;4.10;2.40;;;19.80;99.90;;;;;;4988589;28;20559;-61
2022/07/05 07:44:24;;;;;;;3.37;2.30;;;19.90;99.90;;;;;;4983146;28;20448;-60
2022/07/05 07:46:50;;;;;;;5.63;2.43;;;20.10;99.90;;;;;;4986116;28;20896;-60
2022/07/05 07:49:16;;;;;;;3.23;2.60;;;20.20;99.30;;;;;;4992282;28;20721;-61
2022/07/05 07:51:41;;;;;;;5.57;2.40;;;20.30;93.90;;;;;;4986893;28;20706;-60
2022/07/05 07:54:07;;;;;;;5.23;2.47;;;20.40;90.00;;;;;;4981821;28;20193;-60
2022/07/05 07:56:33;;;;;;;2.70;2.37;;;20.40;86.10;;;;;;5003893;28;20239;-60
2022/07/05 07:58:58;;;;;;;4.50;2.57;;;20.50;84.70;;;;;;4986993;28;20231;-61
2022/07/05 08:01:24;;;;;;;2.30;2.10;;;20.60;79.40;;;;;;4976885;28;20248;-61
2022/07/05 08:03:50;;;;;;;9.53;1.77;;;20.60;75.50;;;;;;4983525;28;20658;-61
2022/07/05 08:06:16;;;;;;;3.23;1.70;;;20.60;64.30;;;;;;4985334;28;20180;-60
2022/07/05 08:08:44;;;;;;;3.53;1.60;;;20.70;61.00;;;;;;4986073;28;20644;-60
2022/07/05 08:11:11;;;;;;;4.40;1.40;;;20.70;57.20;;;;;;4990090;28;20409;-60
2022/07/05 08:13:39;;;;;;;3.20;1.60;;;20.70;58.00;;;;;;4988159;28;20448;-61
2022/07/05 08:16:05;;;;;;;9.20;2.17;;;20.80;61.30;;;;;;4988743;28;20443;-61
2022/07/05 08:21:34;;;;;;;3.50;1.70;;;21.00;62.40;;;;;;4979654;28;20474;-61
2022/07/05 08:24:06;;;;;;;6.80;1.60;;;21.10;60.20;;;;;;4979796;28;20448;-59
2022/07/05 08:26:32;;;;;;;1.70;1.60;;;21.20;59.10;;;;;;4976644;28;20512;-61
2022/07/05 08:29:01;;;;;;;4.03;1.50;;;21.20;54.50;;;;;;4991882;28;20513;-60
2022/07/05 08:31:27;;;;;;;5.37;1.40;;;21.30;54.20;;;;;;4988407;28;20493;-61
2022/07/05 08:33:53;;;;;;;2.23;1.80;;;21.30;54.50;;;;;;4985825;28;20460;-61
2022/07/05 08:36:19;;;;;;;6.60;1.70;;;21.40;56.50;;;;;;4977868;28;20417;-61
2022/07/05 08:38:44;;;;;;;3.03;1.93;;;21.50;58.30;;;;;;4979215;28;20653;-61
2022/07/05 08:41:11;;;;;;;6.90;2.03;;;21.60;56.80;;;;;;4984710;28;20689;-60
2022/07/05 08:43:40;;;;;;;4.40;1.80;;;21.70;57.20;;;;;;4988864;28;20565;-61
2022/07/05 08:46:11;;;;;;;7.70;1.70;;;21.70;58.10;;;;;;4982432;28;20432;-61
2022/07/05 08:48:43;;;;;;;2.10;1.40;;;21.80;58.00;;;;;;4983296;28;20408;-60
2022/07/05 08:51:16;;;;;;;3.43;1.80;;;21.90;56.50;;;;;;4990038;28;20408;-61
2022/07/05 08:53:44;;;;;;;1.97;1.60;;;21.90;56.20;;;;;;4980080;28;20968;-61
2022/07/05 08:56:11;;;;;;;2.63;1.50;;;22.00;57.50;;;;;;4973459;28;20428;-61
2022/07/05 08:58:38;;;;;;;2.77;1.30;;;22.10;57.50;;;;;;4987604;28;20440;-61
2022/07/05 09:01:05;;;;;;;3.10;1.80;;;22.20;56.50;;;;;;4985278;28;20719;-61
2022/07/05 09:03:37;;;;;;;5.70;1.40;;;22.30;56.90;;;;;;4979531;28;20457;-61
2022/07/05 09:06:07;;;;;;;1.73;1.40;;;22.20;52.80;;;;;;4981233;28;20547;-62
2022/07/05 09:08:39;;;;;;;3.70;1.97;;;22.20;54.20;;;;;;4979018;28;20429;-61
2022/07/05 09:11:09;;;;;;;3.40;1.70;;;22.30;56.10;;;;;;4977936;28;20428;-60
2022/07/05 09:13:36;;;;;;;1.90;1.50;;;22.40;56.50;;;;;;4980829;28;20428;-61
2022/07/05 09:16:02;;;;;;;1.50;1.40;;;22.50;57.30;;;;;;4984303;28;20798;-60
2022/07/05 09:18:51;;;;;;;5.77;1.70;;;22.70;56.30;;;;;;4984920;28;20420;-60
2022/07/05 09:21:25;;;;;;;3.93;1.60;;;22.80;55.30;;;;;;4987318;28;20534;-60
2022/07/05 09:23:56;;;;;;;9.00;1.47;;;22.90;53.40;;;;;;4982655;28;20471;-62
2022/07/05 09:26:35;;;;;;;2.70;1.53;;;23.00;53.10;;;;;;4979885;28;20447;-60
2022/07/05 09:29:04;;;;;;;4.17;1.83;;;23.10;52.00;;;;;;4984801;28;20426;-59
2022/07/05 09:31:31;;;;;;;1.47;1.37;;;23.10;50.10;;;;;;4985178;28;20452;-60
2022/07/05 09:34:08;;;;;;;5.67;1.40;;;23.10;50.20;;;;;;4987825;28;20448;-60
2022/07/05 09:37:03;;;;;;;3.20;2.00;;;23.10;50.20;;;;;;4984582;28;20423;-60
2022/07/05 09:39:37;;;;;;;3.60;2.00;;;22.80;50.10;;;;;;4983910;28;20412;-61
2022/07/05 09:42:12;;;;;;;1.77;1.60;;;22.60;49.60;;;;;;4984599;28;20456;-60
2022/07/05 09:44:52;;;;;;;1.70;1.60;;;22.60;49.40;;;;;;4983500;28;20456;-61
2022/07/05 09:47:20;;;;;;;3.33;1.53;;;22.60;49.80;;;;;;4969602;28;20401;-59
2022/07/05 09:49:49;;;;;;;2.10;1.60;;;22.70;49.90;;;;;;4970103;28;20480;-60
2022/07/05 09:52:35;;;;;;;5.50;1.63;;;22.80;48.10;;;;;;4984237;28;20412;-61
2022/07/05 09:55:05;;;;;;;5.03;1.33;;;23.10;51.20;;;;;;4981531;28;20437;-61
2022/07/05 09:57:32;;;;;;;3.33;1.53;;;23.30;52.90;;;;;;4986681;28;20425;-60
2022/07/05 10:00:05;;;;;;;8.73;1.67;;;23.30;50.20;;;;;;4989301;28;20432;-60
2022/07/05 10:03:00;;;;;;;9.17;1.50;;;23.30;48.90;;;;;;4978712;28;20853;-60
2022/07/05 10:05:30;;;;;;;2.00;1.50;;;23.40;49.60;;;;;;4966211;28;20504;-60
2022/07/05 10:07:58;;;;;;;2.80;1.60;;;23.60;51.10;;;;;;4970342;28;20401;-60
2022/07/05 10:10:31;;;;;;;3.17;1.43;;;23.90;52.90;;;;;;4982113;28;20460;-62
2022/07/05 10:13:01;;;;;;;4.13;1.63;;;24.10;52.50;;;;;;4981347;28;20923;-61
2022/07/05 10:15:30;;;;;;;2.33;1.50;;;24.40;51.20;;;;;;4986587;28;20432;-61
2022/07/05 10:18:12;;;;;;;3.83;1.90;;;24.50;48.50;;;;;;4988642;28;20422;-60
2022/07/05 10:20:40;;;;;;;2.23;1.30;;;24.60;47.20;;;;;;4973578;28;20468;-61
2022/07/05 10:23:11;;;;;;;4.40;1.63;;;24.60;47.60;;;;;;4974654;28;20463;-61
2022/07/05 10:25:39;;;;;;;5.47;1.73;;;24.40;48.20;;;;;;4986181;28;20443;-60
2022/07/05 10:28:06;;;;;;;1.90;1.63;;;24.10;49.10;;;;;;4983994;28;20805;-60
2022/07/05 10:30:33;;;;;;;3.27;1.57;;;23.90;50.20;;;;;;4969893;28;20444;-60
2022/07/05 10:33:01;;;;;;;2.57;1.60;;;23.90;51.60;;;;;;4975876;28;20937;-60
2022/07/05 10:35:27;;;;;;;3.33;1.77;;;24.00;48.90;;;;;;4987698;28;20507;-60
2022/07/05 10:37:54;;;;;;;1.57;1.47;;;24.10;48.50;;;;;;4982701;28;20785;-60
2022/07/05 10:40:19;;;;;;;1.80;1.40;;;24.20;48.00;;;;;;4989032;28;20514;-60
2022/07/05 10:42:50;;;;;;;2.57;1.60;;;24.40;47.60;;;;;;4987080;28;20826;-60
2022/07/05 10:45:36;;;;;;;2.60;1.43;;;24.60;47.80;;;;;;4977123;28;20269;-60
2022/07/05 10:48:15;;;;;;;4.07;1.47;;;24.90;46.10;;;;;;4983978;28;20435;-61
2022/07/05 10:50:50;;;;;;;1.97;1.80;;;25.20;48.10;;;;;;4978814;28;20432;-60
2022/07/05 10:53:27;;;;;;;1.33;1.23;;;25.50;48.80;;;;;;4974255;28;20460;-59
2022/07/05 10:56:04;;;;;;;4.37;1.80;;;25.80;48.60;;;;;;4981853;28;20517;-60
2022/07/05 10:58:36;;;;;;;2.33;1.60;;;25.80;45.40;;;;;;4987722;28;20482;-60
2022/07/05 11:01:25;;;;;;;3.43;1.70;;;25.50;43.70;;;;;;4974950;28;20610;-60
2022/07/05 11:04:02;;;;;;;3.00;1.43;;;25.00;46.20;;;;;;4975439;28;20452;-59
2022/07/05 11:06:43;;;;;;;3.77;1.63;;;24.60;46.20;;;;;;4977665;28;20946;-59
2022/07/05 11:09:11;;;;;;;2.50;1.67;;;24.20;47.10;;;;;;4982745;28;20443;-59
2022/07/05 11:11:45;;;;;;;2.00;1.60;;;24.20;47.70;;;;;;4979491;28;20427;-59
2022/07/05 11:14:20;;;;;;;10.53;1.73;;;24.40;47.50;;;;;;4979929;28;20455;-59
2022/07/05 11:16:46;;;;;;;2.37;1.30;;;24.70;49.00;;;;;;4981179;28;20432;-59
2022/07/05 11:19:19;;;;;;;2.80;1.87;;;25.00;50.50;;;;;;4969287;28;20529;-60
2022/07/05 11:22:05;;;;;;;1.97;1.60;;;25.30;47.60;;;;;;4975365;28;20494;-59
2022/07/05 11:24:38;;;;;;;4.47;1.53;;;25.20;46.80;;;;;;4976941;28;20455;-60
2022/07/05 11:27:10;;;;;;;2.23;1.60;;;25.00;46.70;;;;;;4974576;28;20499;-60
2022/07/05 11:29:45;;;;;;;2.83;1.43;;;24.70;47.00;;;;;;4982094;28;20519;-60
2022/07/05 11:32:15;;;;;;;2.20;1.57;;;24.50;48.30;;;;;;4979379;28;20455;-59
2022/07/05 11:34:44;;;;;;;8.10;1.60;;;24.30;49.20;;;;;;4982717;28;21060;-60
2022/07/05 11:37:26;;;;;;;1.87;1.67;;;24.40;49.70;;;;;;4978591;28;21285;-60
2022/07/05 11:40:10;;;;;;;1.70;1.60;;;24.70;47.60;;;;;;4978079;28;20459;-60
2022/07/05 11:42:47;;;;;;;2.23;1.47;;;25.00;45.20;;;;;;4986655;28;20823;-60
2022/07/05 11:45:12;;;;;;;2.70;1.50;;;25.00;46.00;;;;;;4978444;28;20433;-60
2022/07/05 11:47:39;;;;;;;2.80;1.73;;;25.10;47.30;;;;;;4979919;28;20490;-60
2022/07/05 11:50:05;;;;;;;2.10;1.67;;;25.00;47.40;;;;;;4975268;28;20251;-60
2022/07/05 11:52:33;;;;;;;1.90;1.77;;;24.80;46.90;;;;;;4981350;28;20490;-60
2022/07/05 11:55:00;;;;;;;2.17;1.50;;;24.80;48.60;;;;;;4981524;28;20454;-60
2022/07/05 11:57:26;;;;;;;2.30;1.43;;;25.20;49.90;;;;;;4979114;28;20425;-60
2022/07/05 11:59:52;;;;;;;2.47;1.43;;;25.60;48.80;;;;;;4974570;28;20528;-60
2022/07/05 12:02:18;;;;;;;2.80;1.67;;;25.90;46.50;;;;;;4970786;28;20267;-59
2022/07/05 12:04:51;;;;;;;2.03;1.37;;;26.20;44.30;;;;;;4975168;28;20455;-60
2022/07/05 12:07:31;;;;;;;2.50;1.57;;;26.50;44.90;;;;;;4979774;28;20846;-60
2022/07/05 12:12:42;;;;;;;2.10;1.40;;;27.00;42.00;;;;;;4980631;28;20505;-61
2022/07/05 12:15:09;;;;;;;1.80;1.70;;;26.80;41.30;;;;;;4977826;28;20951;-61
2022/07/05 12:17:36;;;;;;;2.47;1.40;;;26.50;43.30;;;;;;4978955;28;20519;-61
2022/07/05 12:20:03;;;;;;;2.60;1.57;;;26.20;45.00;;;;;;4980611;28;20459;-60
2022/07/05 12:22:36;;;;;;;7.90;1.50;;;25.80;45.80;;;;;;4979957;28;20431;-60
2022/07/05 12:25:04;;;;;;;3.37;1.53;;;25.50;45.90;;;;;;4979221;28;21824;-61
2022/07/05 12:27:33;;;;;;;1.37;1.27;;;25.40;46.30;;;;;;4973689;28;21387;-60
2022/07/05 12:30:01;;;;;;;2.87;1.70;;;25.30;46.60;;;;;;4976010;28;20435;-60
2022/07/05 12:32:29;;;;;;;1.80;1.20;;;25.30;44.80;;;;;;4981338;28;20486;-60
2022/07/05 12:34:56;;;;;;;3.10;1.20;;;25.50;42.70;;;;;;4977263;28;20532;-60
2022/07/05 12:37:26;;;;;;;2.30;1.00;;;25.90;45.20;;;;;;4985929;28;20419;-60
2022/07/05 12:40:06;;;;;;;6.20;1.70;;;26.30;45.80;;;;;;4973885;28;21084;-59
2022/07/05 12:42:39;;;;;;;2.43;1.40;;;26.90;46.30;;;;;;4982671;28;20447;-60
2022/07/05 12:45:15;;;;;;;3.17;1.63;;;27.40;45.60;;;;;;4979426;28;20466;-59
2022/07/05 12:48:11;;;;;;;2.30;1.20;;;27.80;44.10;;;;;;4977279;28;20227;-59
2022/07/05 12:50:51;;;;;;;4.40;1.23;;;28.10;41.40;;;;;;4959796;28;20444;-59